createdAt,value
2022-08-25T00:02:39.772Z,23.30
2022-08-25T00:07:38.718Z,23.20
2022-08-25T00:12:38.168Z,23.20
2022-08-25T00:17:36.228Z,23.10
2022-08-25T00:22:34.234Z,23.00
2022-08-25T00:27:32.214Z,23.00
2022-08-25T00:32:31.711Z,22.90
2022-08-25T00:37:30.085Z,22.90
2022-08-25T00:42:28.554Z,22.70
2022-08-25T00:47:26.985Z,22.70
2022-08-25T00:52:30.709Z,22.70
2022-08-25T00:57:34.864Z,22.70
2022-08-25T01:02:33.348Z,22.60
2022-08-25T01:07:33.374Z,22.60
2022-08-25T01:12:31.416Z,22.60
2022-08-25T01:17:35.730Z,22.50
2022-08-25T01:22:35.086Z,22.50
2022-08-25T01:27:33.070Z,22.50
2022-08-25T01:32:34.840Z,22.50
2022-08-25T01:37:35.456Z,22.40
2022-08-25T01:42:43.778Z,22.30
2022-08-25T01:47:41.976Z,22.30
2022-08-25T01:52:50.684Z,22.30
2022-08-25T01:57:48.766Z,22.30
2022-08-25T02:02:47.165Z,22.30
2022-08-25T02:07:51.762Z,22.20
2022-08-25T02:12:50.772Z,22.20
2022-08-25T02:17:52.719Z,22.10
2022-08-25T02:22:56.827Z,22.20
2022-08-25T02:27:55.019Z,22.20
2022-08-25T02:32:53.056Z,22.20
2022-08-25T02:37:53.717Z,22.10
2022-08-25T02:42:52.947Z,22.10
2022-08-25T02:47:50.925Z,22.10
2022-08-25T02:52:50.494Z,22.00
2022-08-25T02:57:49.827Z,22.00
2022-08-25T03:02:48.035Z,22.00
2022-08-25T03:07:46.099Z,21.90
2022-08-25T03:12:44.197Z,21.90
2022-08-25T03:17:43.828Z,21.90
2022-08-25T03:22:43.743Z,21.90
2022-08-25T03:27:41.758Z,21.90
2022-08-25T03:32:41.129Z,21.90
2022-08-25T03:37:41.225Z,21.80
2022-08-25T03:42:44.848Z,21.80
2022-08-25T03:47:46.349Z,21.90
2022-08-25T03:52:46.909Z,21.90
2022-08-25T03:57:44.978Z,21.90
2022-08-25T04:02:43.204Z,21.80
2022-08-25T04:07:41.962Z,21.80
2022-08-25T04:12:41.782Z,21.80
2022-08-25T04:17:41.175Z,21.90
2022-08-25T04:22:39.803Z,21.80
2022-08-25T04:27:44.479Z,21.80
2022-08-25T04:32:42.550Z,21.80
2022-08-25T04:37:40.492Z,21.80
2022-08-25T04:42:38.809Z,21.80
2022-08-25T04:47:40.188Z,21.90
2022-08-25T04:52:38.482Z,22.00
2022-08-25T04:57:36.489Z,22.10
2022-08-25T05:02:34.529Z,22.00
2022-08-25T05:07:33.888Z,22.10
2022-08-25T05:12:33.039Z,22.10
2022-08-25T05:17:31.214Z,22.10
2022-08-25T05:22:29.275Z,22.20
2022-08-25T05:27:28.693Z,22.30
2022-08-25T05:32:26.779Z,22.30
2022-08-25T05:37:24.833Z,22.40
2022-08-25T05:42:23.573Z,22.40
2022-08-25T05:47:23.055Z,22.50
2022-08-25T05:52:21.227Z,22.60
2022-08-25T05:57:19.267Z,22.60
2022-08-25T06:02:34.698Z,22.50
2022-08-25T06:07:34.058Z,22.60
2022-08-25T06:12:33.700Z,22.60
2022-08-25T06:17:32.367Z,22.60
2022-08-25T06:22:30.358Z,22.60
2022-08-25T06:27:29.774Z,22.60
2022-08-25T06:32:27.790Z,22.70
2022-08-25T06:37:25.968Z,22.70
2022-08-25T06:42:24.066Z,22.70
2022-08-25T06:47:23.409Z,22.90
2022-08-25T06:52:21.414Z,22.90
2022-08-25T06:57:25.976Z,23.00
2022-08-25T07:02:25.994Z,23.10
2022-08-25T07:07:24.052Z,23.20
2022-08-25T07:12:23.945Z,23.10
2022-08-25T07:17:24.893Z,23.10
2022-08-25T07:22:23.312Z,23.20
2022-08-25T07:27:21.349Z,23.20
2022-08-25T07:32:19.361Z,23.20
2022-08-25T07:37:27.556Z,23.20
2022-08-25T07:42:36.793Z,23.30
2022-08-25T07:47:35.660Z,23.40
2022-08-25T07:52:35.706Z,23.70
2022-08-25T07:57:36.904Z,23.70
2022-08-25T08:02:35.079Z,23.80
2022-08-25T08:07:43.081Z,23.90
2022-08-25T08:12:43.392Z,24.10
2022-08-25T08:17:41.778Z,24.30
2022-08-25T08:22:43.486Z,24.50
2022-08-25T08:27:44.924Z,24.70
2022-08-25T08:33:08.181Z,24.80
2022-08-25T08:38:01.278Z,25.20
2022-08-25T08:43:18.159Z,25.60
2022-08-25T08:48:38.722Z,25.70
2022-08-25T08:53:46.225Z,25.90
2022-08-25T08:58:49.912Z,26.90
2022-08-25T09:03:55.307Z,27.80
2022-08-25T09:08:56.795Z,28.80
2022-08-25T09:14:11.426Z,29.80
2022-08-25T09:19:24.361Z,29.50
2022-08-25T09:24:39.903Z,28.60
2022-08-25T09:29:51.722Z,28.40
2022-08-25T09:34:51.908Z,28.60
2022-08-25T09:39:49.934Z,30.10
2022-08-25T09:44:49.770Z,32.20
2022-08-25T09:49:50.677Z,33.90
2022-08-25T09:54:50.139Z,34.90
2022-08-25T09:59:57.261Z,34.50
2022-08-25T10:04:57.136Z,35.00
2022-08-25T10:09:57.346Z,36.30
2022-08-25T10:14:57.100Z,36.90
2022-08-25T10:19:57.200Z,36.80
2022-08-25T10:24:55.901Z,35.30
2022-08-25T10:30:19.065Z,34.00
2022-08-25T10:35:20.833Z,32.90
2022-08-25T10:40:25.205Z,32.00
2022-08-25T10:45:46.049Z,32.20
2022-08-25T10:50:49.091Z,32.40
2022-08-25T10:55:56.037Z,32.30
2022-08-25T11:01:05.633Z,32.40
2022-08-25T11:06:10.326Z,32.60
2022-08-25T11:11:13.518Z,32.10
2022-08-25T11:16:18.784Z,32.00
2022-08-25T11:21:22.641Z,32.40
2022-08-25T11:26:31.859Z,33.10
2022-08-25T11:31:38.519Z,33.70
2022-08-25T11:36:40.559Z,33.50
2022-08-25T11:41:45.881Z,32.90
2022-08-25T11:47:04.280Z,32.40
2022-08-25T11:52:04.563Z,32.10
2022-08-25T11:57:06.708Z,31.90
2022-08-25T12:02:06.423Z,31.60
2022-08-25T12:07:26.765Z,31.50
2022-08-25T12:12:30.611Z,32.10
2022-08-25T12:17:39.751Z,32.60
2022-08-25T12:22:55.208Z,32.70
2022-08-25T12:28:09.179Z,33.00
2022-08-25T12:33:13.002Z,32.70
2022-08-25T12:38:15.766Z,32.20
2022-08-25T12:43:26.518Z,32.20
2022-08-25T12:48:56.985Z,32.30
2022-08-25T12:54:01.918Z,32.30
2022-08-25T12:59:18.435Z,31.80
2022-08-25T13:04:51.528Z,31.30
2022-08-25T13:10:23.212Z,30.90
2022-08-25T13:15:34.519Z,31.10
2022-08-25T13:20:34.382Z,31.40
2022-08-25T13:25:37.090Z,31.50
2022-08-25T13:30:39.131Z,32.00
2022-08-25T13:35:39.438Z,32.40
2022-08-25T13:40:37.807Z,32.30
2022-08-25T13:45:41.307Z,31.90
2022-08-25T13:50:43.312Z,31.50
2022-08-25T13:55:53.165Z,31.30
2022-08-25T14:01:22.164Z,31.30
2022-08-25T14:06:29.153Z,30.90
2022-08-25T14:11:31.024Z,31.00
2022-08-25T14:16:30.316Z,31.50
2022-08-25T14:21:32.667Z,32.20
2022-08-25T14:26:32.589Z,32.70
2022-08-25T14:31:34.294Z,32.90
2022-08-25T14:36:36.083Z,32.80
2022-08-25T14:41:36.157Z,32.70
2022-08-25T14:46:37.357Z,32.70
2022-08-25T14:51:41.024Z,32.80
2022-08-25T14:56:42.968Z,33.00
2022-08-25T15:01:41.667Z,32.90
2022-08-25T15:06:43.631Z,32.90
2022-08-25T15:11:43.991Z,32.60
2022-08-25T15:16:45.224Z,32.30
2022-08-25T15:21:46.793Z,32.50
2022-08-25T15:31:51.862Z,32.30
2022-08-25T15:36:51.526Z,31.80
2022-08-25T15:41:52.205Z,31.20
2022-08-25T15:46:50.443Z,30.90
2022-08-25T15:51:48.558Z,30.70
2022-08-25T15:56:48.092Z,30.90
2022-08-25T16:01:46.557Z,31.20
2022-08-25T16:06:44.596Z,31.60
2022-08-25T16:11:43.441Z,31.80
2022-08-25T16:16:42.943Z,32.00
2022-08-25T16:21:47.532Z,32.00
2022-08-25T16:26:48.471Z,32.10
2022-08-25T16:31:53.298Z,32.10
2022-08-25T16:36:52.041Z,32.10
2022-08-25T16:41:51.319Z,32.10
2022-08-25T16:46:54.180Z,32.10
2022-08-25T16:51:56.677Z,32.00
2022-08-25T16:56:57.341Z,31.80
2022-08-25T17:01:56.765Z,31.70
2022-08-25T17:06:54.797Z,31.50
2022-08-25T17:11:56.759Z,31.50
2022-08-25T17:16:56.316Z,31.40
2022-08-25T17:21:55.123Z,31.10
2022-08-25T17:26:53.131Z,30.70
2022-08-25T17:31:51.594Z,30.40
2022-08-25T17:36:51.363Z,30.10
2022-08-25T17:41:49.505Z,29.90
2022-08-25T17:46:48.207Z,29.60
2022-08-25T17:51:46.464Z,29.30
2022-08-25T17:56:45.988Z,29.00
2022-08-25T18:01:44.051Z,28.80
2022-08-25T18:06:42.100Z,28.60
2022-08-25T18:11:40.119Z,28.50
2022-08-25T18:16:40.201Z,28.40
2022-08-25T18:21:38.361Z,28.30
2022-08-25T18:26:36.615Z,28.10
2022-08-25T18:31:34.644Z,28.00
2022-08-25T18:36:38.530Z,27.90
2022-08-25T18:41:40.799Z,27.80
2022-08-25T18:46:39.756Z,27.70
2022-08-25T18:51:39.658Z,27.60
2022-08-25T18:56:37.700Z,27.50
2022-08-25T19:01:36.735Z,27.50
2022-08-25T19:06:37.197Z,27.40
2022-08-25T19:11:36.609Z,27.30
2022-08-25T19:16:40.288Z,27.20
2022-08-25T19:21:39.357Z,27.10
2022-08-25T19:26:39.005Z,27.10
2022-08-25T19:31:39.313Z,27.00
2022-08-25T19:36:37.799Z,26.90
2022-08-25T19:41:35.917Z,26.80
2022-08-25T19:46:38.349Z,26.70
2022-08-25T19:51:37.615Z,26.60
2022-08-25T19:56:36.261Z,26.50
2022-08-25T20:01:36.699Z,26.50
2022-08-25T20:06:39.171Z,26.40
2022-08-25T20:11:37.895Z,26.30
2022-08-25T20:16:37.730Z,26.20
2022-08-25T20:21:38.923Z,26.20
2022-08-25T20:26:36.959Z,26.10
2022-08-25T20:31:34.949Z,26.10
2022-08-25T20:36:35.954Z,26.00
2022-08-25T20:41:35.179Z,25.90
2022-08-25T20:46:35.111Z,25.80
2022-08-25T20:51:37.575Z,25.80
2022-08-25T20:56:35.884Z,25.70
2022-08-25T21:01:42.314Z,25.60
2022-08-25T21:06:42.547Z,25.50
2022-08-25T21:11:41.185Z,25.50
2022-08-25T21:16:40.832Z,25.50
2022-08-25T21:21:40.097Z,25.30
2022-08-25T21:26:47.646Z,25.20
2022-08-25T21:31:47.586Z,25.20
2022-08-25T21:36:47.645Z,25.20
2022-08-25T21:41:47.092Z,25.10
2022-08-25T21:46:53.711Z,25.10
2022-08-25T21:52:00.301Z,25.10
2022-08-25T21:57:02.101Z,25.00
2022-08-25T22:02:02.794Z,25.00
2022-08-25T22:07:02.468Z,24.90
2022-08-25T22:12:03.421Z,24.90
2022-08-25T22:17:01.502Z,24.90
2022-08-25T22:21:59.680Z,24.90
2022-08-25T22:26:57.690Z,24.80
2022-08-25T22:32:02.208Z,24.80
2022-08-25T22:37:01.554Z,24.80
2022-08-25T22:41:59.805Z,24.80
2022-08-25T22:46:59.243Z,24.80
2022-08-25T22:51:57.261Z,24.80
2022-08-25T22:56:57.967Z,24.80
2022-08-25T23:01:56.565Z,24.80
2022-08-25T23:06:56.013Z,24.80
2022-08-25T23:11:55.184Z,24.80
2022-08-25T23:16:53.365Z,24.80
2022-08-25T23:22:11.017Z,24.90
2022-08-25T23:27:10.526Z,24.80
2022-08-25T23:32:09.650Z,24.80
2022-08-25T23:37:16.112Z,24.80
2022-08-25T23:42:16.586Z,24.90
2022-08-25T23:47:14.769Z,24.90
2022-08-25T23:52:17.139Z,24.90
2022-08-25T23:57:15.178Z,24.80
